25  °C
Temperature
17  °C
  Dewpoint
   Humidity
Temp | Dewpoint | Humidity
21  km/h
Wind Speed
13  mph
Wind Speed
11  kts
Wind Speed
10°
Due North

Wind Speed
Clear
Conditions
Pressure 1008.92 (hPa) - 29.79 (in)
Visibility 6.2 (mi) - 10.0 (km)

Current Conditions
LGNX
Location 6km (3.2mi)
Metar :LGNX 051750Z 01011KT CAVOK 25/17 Q1009
Tue 5th July 20:50 pm

Airport
  Metar Aviation API Data Provided by https://www.checkwx.com/ CSS/SVG/PHP scripts by weather34.com © 2015-2022